createdAt,value
2023-04-15T00:00:28.393Z,48.75
2023-04-15T00:01:33.865Z,48.70
2023-04-15T00:02:38.706Z,48.72
2023-04-15T00:03:41.982Z,48.69
2023-04-15T00:04:45.992Z,48.72
2023-04-15T00:05:48.792Z,48.74
2023-04-15T00:06:52.826Z,48.71
2023-04-15T00:07:56.590Z,48.68
2023-04-15T00:08:59.509Z,48.65
2023-04-15T00:10:04.284Z,48.67
2023-04-15T00:11:07.656Z,48.64
2023-04-15T00:12:11.162Z,48.66
2023-04-15T00:13:14.722Z,48.67
2023-04-15T00:14:19.593Z,48.67
2023-04-15T00:15:23.378Z,48.67
2023-04-15T00:16:26.740Z,48.64
2023-04-15T00:17:30.852Z,48.60
2023-04-15T00:18:34.219Z,48.57
2023-04-15T00:19:37.285Z,48.60
2023-04-15T00:20:41.216Z,48.59
2023-04-15T00:21:45.390Z,48.58
2023-04-15T00:22:48.566Z,48.57
2023-04-15T00:23:53.489Z,48.58
2023-04-15T00:24:57.036Z,48.58
2023-04-15T00:26:00.347Z,48.58
2023-04-15T00:27:03.891Z,48.55
2023-04-15T00:28:06.530Z,48.54
2023-04-15T00:29:09.998Z,48.52
2023-04-15T00:30:13.053Z,48.51
2023-04-15T00:31:16.946Z,48.53
2023-04-15T00:32:23.056Z,48.51
2023-04-15T00:33:27.048Z,48.50
2023-04-15T00:34:31.067Z,48.50
2023-04-15T00:35:34.195Z,48.48
2023-04-15T00:36:38.314Z,48.50
2023-04-15T00:37:43.224Z,48.51
2023-04-15T00:38:47.561Z,48.51
2023-04-15T00:39:51.154Z,48.50
2023-04-15T00:40:55.183Z,48.50
2023-04-15T00:41:58.317Z,48.52
2023-04-15T00:43:03.803Z,48.51
2023-04-15T00:44:06.828Z,48.52
2023-04-15T00:45:11.136Z,48.51
2023-04-15T00:46:15.905Z,48.50
2023-04-15T00:47:20.378Z,48.51
2023-04-15T00:48:24.714Z,48.47
2023-04-15T00:49:28.672Z,48.47
2023-04-15T00:50:33.911Z,48.47
2023-04-15T00:51:37.373Z,48.44
2023-04-15T00:52:40.610Z,48.44
2023-04-15T00:53:44.436Z,48.40
2023-04-15T00:54:47.908Z,48.33
2023-04-15T00:55:50.890Z,48.31
2023-04-15T00:56:54.362Z,48.32
2023-04-15T00:57:57.862Z,48.26
2023-04-15T00:59:12.038Z,48.20
2023-04-15T01:00:16.086Z,48.19
2023-04-15T01:01:20.923Z,48.21
2023-04-15T01:02:25.122Z,48.16
2023-04-15T01:03:28.772Z,48.22
2023-04-15T01:04:33.834Z,48.21
2023-04-15T01:05:36.938Z,48.16
2023-04-15T01:06:40.628Z,48.12
2023-04-15T01:07:43.993Z,48.15
2023-04-15T01:08:48.062Z,48.11
2023-04-15T01:09:52.220Z,48.12
2023-04-15T01:10:56.219Z,48.11
2023-04-15T01:11:59.286Z,48.08
2023-04-15T01:13:05.184Z,48.08
2023-04-15T01:14:10.612Z,48.12
2023-04-15T01:15:14.494Z,48.08
2023-04-15T01:16:17.550Z,48.08
2023-04-15T01:17:20.355Z,48.07
2023-04-15T01:18:23.290Z,48.08
2023-04-15T01:19:27.380Z,48.07
2023-04-15T01:20:32.186Z,48.06
2023-04-15T01:22:52.190Z,48.02
2023-04-15T01:23:56.389Z,48.00
2023-04-15T01:26:18.955Z,47.94
2023-04-15T01:27:22.729Z,48.00
2023-04-15T01:28:27.129Z,48.02
2023-04-15T01:29:31.193Z,48.02
2023-04-15T01:30:35.779Z,48.00
2023-04-15T01:31:38.660Z,47.97
2023-04-15T01:32:42.672Z,47.99
2023-04-15T01:33:46.505Z,47.96
2023-04-15T01:34:50.911Z,47.95
2023-04-15T01:36:04.795Z,47.92
2023-04-15T01:37:07.369Z,47.96
2023-04-15T01:38:10.044Z,47.99
2023-04-15T01:39:15.342Z,48.02
2023-04-15T01:40:18.634Z,48.02
2023-04-15T01:41:26.344Z,48.00
2023-04-15T01:42:29.093Z,47.94
2023-04-15T01:43:32.541Z,47.96
2023-04-15T01:44:37.006Z,47.97
2023-04-15T01:45:41.770Z,47.99
2023-04-15T01:46:46.500Z,47.99
2023-04-15T01:47:49.907Z,47.97
2023-04-15T01:48:52.719Z,47.94
2023-04-15T01:49:55.656Z,48.00
2023-04-15T01:50:58.611Z,48.00
2023-04-15T01:52:03.035Z,48.00
2023-04-15T01:53:05.767Z,47.99
2023-04-15T01:54:10.326Z,48.02
2023-04-15T01:55:13.950Z,47.94
2023-04-15T01:56:18.325Z,47.94
2023-04-15T01:57:21.447Z,47.91
2023-04-15T01:58:24.496Z,47.84
2023-04-15T01:59:28.523Z,47.84
2023-04-15T02:00:32.055Z,47.84
2023-04-15T02:01:36.964Z,47.79
2023-04-15T02:02:40.655Z,47.76
2023-04-15T02:03:44.056Z,47.79
2023-04-15T02:04:48.257Z,47.77
2023-04-15T02:05:53.765Z,47.79
2023-04-15T02:06:57.853Z,47.80
2023-04-15T02:08:01.320Z,47.79
2023-04-15T02:09:05.137Z,47.83
2023-04-15T02:10:09.743Z,47.97
2023-04-15T02:11:12.776Z,47.97
2023-04-15T02:12:16.060Z,47.82
2023-04-15T02:13:19.638Z,47.80
2023-04-15T02:14:24.913Z,47.81
2023-04-15T02:15:29.914Z,47.79
2023-04-15T02:16:33.211Z,47.80
2023-04-15T02:17:37.068Z,47.79
2023-04-15T02:18:41.194Z,47.79
2023-04-15T02:19:46.088Z,47.77
2023-04-15T02:20:52.769Z,47.75
2023-04-15T02:21:57.580Z,47.73
2023-04-15T02:23:02.021Z,47.77
2023-04-15T02:24:06.621Z,47.77
2023-04-15T02:25:11.635Z,47.80
2023-04-15T02:26:15.949Z,47.83
2023-04-15T02:27:20.574Z,47.84
2023-04-15T02:28:24.701Z,47.93
2023-04-15T02:29:28.439Z,47.93
2023-04-15T02:30:33.680Z,47.79
2023-04-15T02:31:39.997Z,47.76
2023-04-15T02:32:45.309Z,47.74
2023-04-15T02:33:48.859Z,47.79
2023-04-15T02:34:52.562Z,47.72
2023-04-15T02:35:56.051Z,47.74
2023-04-15T02:36:59.543Z,47.72
2023-04-15T02:38:03.186Z,47.75
2023-04-15T02:39:07.772Z,47.74
2023-04-15T02:40:11.855Z,47.75
2023-04-15T02:41:15.098Z,47.73
2023-04-15T02:42:18.554Z,47.73
2023-04-15T02:43:22.211Z,47.71
2023-04-15T02:44:28.007Z,47.69
2023-04-15T02:45:33.132Z,47.69
2023-04-15T02:46:37.802Z,47.72
2023-04-15T02:47:41.428Z,47.66
2023-04-15T02:48:44.792Z,47.69
2023-04-15T02:51:14.509Z,47.67
2023-04-15T02:52:17.993Z,47.69
2023-04-15T02:53:20.754Z,47.74
2023-04-15T02:54:23.833Z,47.78
2023-04-15T02:55:27.278Z,47.80
2023-04-15T02:56:30.362Z,47.75
2023-04-15T02:57:34.464Z,47.78
2023-04-15T02:58:40.318Z,47.79
2023-04-15T02:59:43.476Z,47.75
2023-04-15T03:00:46.422Z,47.74
2023-04-15T03:01:49.408Z,47.73
2023-04-15T03:03:00.460Z,47.69
2023-04-15T03:04:04.293Z,47.73
2023-04-15T03:05:10.477Z,47.66
2023-04-15T03:07:26.066Z,47.57
2023-04-15T03:08:29.392Z,47.57
2023-04-15T03:09:32.596Z,47.55
2023-04-15T03:10:36.984Z,47.55
2023-04-15T03:11:41.526Z,47.55
2023-04-15T03:12:45.972Z,47.51
2023-04-15T03:13:50.970Z,47.49
2023-04-15T03:15:06.886Z,47.52
2023-04-15T03:16:12.656Z,47.46
2023-04-15T03:17:17.541Z,47.47
2023-04-15T03:18:23.104Z,47.41
2023-04-15T03:19:25.847Z,47.43
2023-04-15T03:20:29.348Z,47.41
2023-04-15T03:21:34.244Z,47.44
2023-04-15T03:22:36.996Z,47.43
2023-04-15T03:23:40.713Z,47.44
2023-04-15T03:24:44.231Z,47.43
2023-04-15T03:25:47.492Z,47.43
2023-04-15T03:26:52.322Z,47.44
2023-04-15T03:27:57.031Z,47.43
2023-04-15T03:29:01.854Z,47.43
2023-04-15T03:30:07.436Z,47.39
2023-04-15T03:31:13.856Z,47.40
2023-04-15T03:32:18.876Z,47.39
2023-04-15T03:33:21.807Z,47.37
2023-04-15T03:34:25.113Z,47.39
2023-04-15T03:35:28.907Z,47.40
2023-04-15T03:36:35.031Z,47.45
2023-04-15T03:37:37.828Z,47.49
2023-04-15T03:39:53.131Z,47.51
2023-04-15T03:40:55.967Z,47.52
2023-04-15T03:41:59.893Z,47.60
2023-04-15T03:43:02.562Z,47.54
2023-04-15T03:44:06.159Z,47.55
2023-04-15T03:45:09.653Z,47.46
2023-04-15T03:46:12.536Z,47.50
2023-04-15T03:47:15.234Z,47.43
2023-04-15T03:48:18.468Z,47.46
2023-04-15T03:49:22.510Z,47.46
2023-04-15T03:50:25.297Z,47.54
2023-04-15T03:51:27.872Z,47.50
2023-04-15T03:52:31.224Z,47.50
2023-04-15T03:53:34.430Z,47.49
2023-04-15T03:54:39.447Z,47.43
2023-04-15T03:55:43.046Z,47.49
2023-04-15T03:56:46.350Z,47.52
2023-04-15T03:57:49.571Z,47.55
2023-04-15T03:58:52.379Z,47.58
2023-04-15T03:59:55.251Z,47.62
2023-04-15T04:00:59.018Z,47.65
2023-04-15T04:02:02.470Z,47.67
2023-04-15T04:03:07.611Z,47.67
2023-04-15T04:04:11.288Z,47.69
2023-04-15T04:05:15.140Z,47.73
2023-04-15T04:06:18.418Z,47.72
2023-04-15T04:07:23.910Z,47.78
2023-04-15T04:08:26.926Z,47.81
2023-04-15T04:09:30.262Z,47.80
2023-04-15T04:10:34.038Z,47.77
2023-04-15T04:11:37.090Z,47.72
2023-04-15T04:12:40.945Z,47.68
2023-04-15T04:13:43.951Z,47.63
2023-04-15T04:14:46.663Z,47.55
2023-04-15T04:15:49.793Z,47.55
2023-04-15T04:16:52.939Z,47.49
2023-04-15T04:17:57.377Z,47.45
2023-04-15T04:19:02.423Z,47.42
2023-04-15T04:21:20.165Z,47.37
2023-04-15T04:22:23.745Z,47.38
2023-04-15T04:23:27.623Z,47.41
2023-04-15T04:24:31.116Z,47.44
2023-04-15T04:25:33.904Z,47.45
2023-04-15T04:26:36.549Z,47.41
2023-04-15T04:27:39.326Z,47.41
2023-04-15T04:28:43.579Z,47.42
2023-04-15T04:29:47.299Z,47.45
2023-04-15T04:30:51.318Z,47.40
2023-04-15T04:31:56.457Z,47.40
2023-04-15T04:33:00.322Z,47.49
2023-04-15T04:34:03.579Z,47.41
2023-04-15T04:35:07.144Z,47.49
2023-04-15T04:36:11.070Z,47.56
2023-04-15T04:37:14.656Z,47.65
2023-04-15T04:38:17.281Z,47.74
2023-04-15T04:39:22.246Z,47.87
2023-04-15T04:40:25.197Z,47.93
2023-04-15T04:41:29.005Z,48.05
2023-04-15T04:42:32.437Z,48.14
2023-04-15T04:43:35.319Z,48.24
2023-04-15T04:44:38.586Z,48.28
2023-04-15T04:46:54.789Z,48.55
2023-04-15T04:47:57.758Z,48.65
2023-04-15T04:49:00.770Z,48.73
2023-04-15T04:50:05.075Z,48.82
2023-04-15T04:51:09.003Z,48.95
2023-04-15T04:52:12.977Z,48.97
2023-04-15T04:53:15.888Z,48.99
2023-04-15T04:54:19.218Z,49.16
2023-04-15T04:55:22.950Z,49.22
2023-04-15T04:56:27.124Z,49.27
2023-04-15T04:57:29.978Z,49.37
2023-04-15T04:58:34.694Z,49.43
2023-04-15T04:59:37.855Z,49.46
2023-04-15T05:01:56.048Z,49.67
2023-04-15T05:02:59.437Z,49.64
2023-04-15T05:04:05.604Z,49.70
2023-04-15T05:05:10.382Z,49.75
2023-04-15T05:06:13.406Z,49.72
2023-04-15T05:07:16.061Z,49.89
2023-04-15T05:08:19.354Z,49.89
2023-04-15T05:09:23.580Z,49.89
2023-04-15T05:10:26.378Z,49.89
2023-04-15T05:11:29.396Z,49.93
2023-04-15T05:12:32.390Z,50.03
2023-04-15T05:13:38.304Z,49.99
2023-04-15T05:14:43.297Z,50.02
2023-04-15T05:15:47.598Z,50.08
2023-04-15T05:16:50.976Z,50.09
2023-04-15T05:17:54.835Z,50.23
2023-04-15T05:18:57.981Z,50.24
2023-04-15T05:20:01.995Z,50.30
2023-04-15T05:21:05.758Z,50.38
2023-04-15T05:22:08.612Z,50.41
2023-04-15T05:23:13.020Z,50.43
2023-04-15T05:24:16.783Z,50.43
2023-04-15T05:25:19.675Z,50.43
2023-04-15T05:26:24.097Z,50.41
2023-04-15T05:27:27.617Z,50.41
2023-04-15T05:28:30.865Z,50.37
2023-04-15T05:29:34.124Z,50.34
2023-04-15T05:30:38.419Z,50.41
2023-04-15T05:31:41.553Z,50.38
2023-04-15T05:32:44.871Z,50.39
2023-04-15T05:33:48.117Z,50.43
2023-04-15T05:34:51.708Z,50.52
2023-04-15T05:35:55.628Z,50.57
2023-04-15T05:36:58.449Z,50.58
2023-04-15T05:38:01.778Z,50.67
2023-04-15T05:39:05.736Z,50.64
2023-04-15T05:40:10.094Z,50.64
2023-04-15T05:41:16.158Z,50.58
2023-04-15T05:42:21.366Z,50.62
2023-04-15T05:43:25.466Z,50.63
2023-04-15T05:44:28.233Z,50.62
2023-04-15T05:45:31.483Z,50.66
2023-04-15T05:46:35.937Z,50.66
2023-04-15T05:47:39.287Z,50.73
2023-04-15T05:48:43.681Z,50.64
2023-04-15T05:49:46.999Z,50.66
2023-04-15T05:50:50.786Z,50.62
2023-04-15T05:51:54.629Z,50.65
2023-04-15T05:52:58.138Z,50.84
2023-04-15T05:54:01.907Z,50.84
2023-04-15T05:55:05.714Z,50.61
2023-04-15T05:56:09.182Z,50.65
2023-04-15T05:57:12.605Z,50.65
2023-04-15T05:58:15.480Z,50.61
2023-04-15T05:59:18.203Z,50.61
2023-04-15T06:00:20.828Z,50.60
2023-04-15T06:01:24.169Z,50.66
2023-04-15T06:02:27.392Z,50.65
2023-04-15T06:03:30.274Z,50.66
2023-04-15T06:04:33.217Z,50.65
2023-04-15T06:05:36.029Z,50.67
2023-04-15T06:06:39.948Z,50.65
2023-04-15T06:07:44.235Z,50.67
2023-04-15T06:08:48.582Z,50.70
2023-04-15T06:09:51.945Z,50.70
2023-04-15T06:10:55.486Z,50.85
2023-04-15T06:11:58.699Z,50.85
2023-04-15T06:13:03.826Z,50.70
2023-04-15T06:14:06.741Z,50.71
2023-04-15T06:15:11.156Z,50.68
2023-04-15T06:16:14.796Z,50.70
2023-04-15T06:17:18.721Z,50.71
2023-04-15T06:18:21.992Z,50.70
2023-04-15T06:19:25.865Z,50.70
2023-04-15T06:20:28.998Z,50.70
2023-04-15T06:21:32.375Z,50.72
2023-04-15T06:22:37.662Z,50.72
2023-04-15T06:23:43.331Z,50.70
2023-04-15T06:24:46.240Z,50.70
2023-04-15T06:25:49.796Z,50.70
2023-04-15T06:26:53.632Z,50.72
2023-04-15T06:27:56.499Z,50.71
2023-04-15T06:28:59.929Z,50.70
2023-04-15T06:30:03.946Z,50.71
2023-04-15T06:31:06.883Z,50.72
2023-04-15T06:32:10.748Z,50.71
2023-04-15T06:33:14.547Z,50.71
2023-04-15T06:34:18.255Z,50.69
2023-04-15T06:35:22.657Z,50.70
2023-04-15T06:36:25.893Z,50.70
2023-04-15T06:37:29.760Z,50.73
2023-04-15T06:38:32.489Z,50.73
2023-04-15T06:39:35.956Z,50.73
2023-04-15T06:40:40.006Z,50.74
2023-04-15T06:41:43.035Z,50.73
2023-04-15T06:42:46.381Z,50.73
2023-04-15T06:43:50.665Z,50.71
2023-04-15T06:44:55.061Z,50.71
2023-04-15T06:45:57.830Z,50.71
2023-04-15T06:47:02.241Z,50.70
2023-04-15T06:48:06.500Z,50.71
2023-04-15T06:49:09.476Z,50.71
2023-04-15T06:50:13.463Z,50.53
2023-04-15T06:51:16.436Z,50.53
2023-04-15T06:52:19.468Z,50.70
2023-04-15T06:53:23.380Z,50.72
2023-04-15T06:54:27.666Z,50.72
2023-04-15T06:55:31.456Z,50.71
2023-04-15T06:56:35.090Z,50.71
2023-04-15T06:57:37.946Z,50.70
2023-04-15T06:58:41.721Z,50.70
2023-04-15T06:59:44.923Z,50.67
2023-04-15T07:00:48.830Z,50.71
2023-04-15T07:01:51.658Z,50.72
2023-04-15T07:02:56.302Z,50.74
2023-04-15T07:04:02.095Z,50.71
2023-04-15T07:05:08.187Z,50.66
2023-04-15T07:06:12.325Z,50.64
2023-04-15T07:07:17.470Z,50.61
2023-04-15T07:08:20.823Z,50.59
2023-04-15T07:09:25.825Z,50.53
2023-04-15T07:10:29.364Z,50.49
2023-04-15T07:11:32.374Z,50.44
2023-04-15T07:12:35.905Z,50.40
2023-04-15T07:13:38.985Z,50.37
2023-04-15T07:14:57.994Z,50.37
2023-04-15T07:16:00.729Z,50.34
2023-04-15T07:17:04.066Z,50.29
2023-04-15T07:18:07.447Z,50.28
2023-04-15T07:19:10.082Z,50.25
2023-04-15T07:20:14.452Z,50.22
2023-04-15T07:21:18.263Z,50.20
2023-04-15T07:22:20.903Z,50.16
2023-04-15T07:23:24.654Z,50.15
2023-04-15T07:24:27.732Z,50.13
2023-04-15T07:25:31.132Z,50.21
2023-04-15T07:26:36.283Z,50.21
2023-04-15T07:27:40.020Z,50.04
2023-04-15T07:28:43.149Z,50.01
2023-04-15T07:29:46.150Z,50.00
2023-04-15T07:30:48.906Z,50.03
2023-04-15T07:31:51.600Z,50.00
2023-04-15T07:32:55.355Z,50.03
2023-04-15T07:33:59.269Z,49.45
2023-04-15T07:35:04.161Z,49.30
2023-04-15T07:36:08.146Z,49.17
2023-04-15T07:37:12.100Z,48.96
2023-04-15T07:38:15.006Z,48.87
2023-04-15T07:39:18.602Z,48.80
2023-04-15T07:40:22.405Z,48.84
2023-04-15T07:41:26.074Z,48.50
2023-04-15T07:42:28.845Z,48.71
2023-04-15T07:43:31.701Z,48.50
2023-04-15T07:44:35.066Z,48.12
2023-04-15T07:45:37.683Z,48.43
2023-04-15T07:46:42.198Z,48.47
2023-04-15T07:47:47.272Z,48.38
2023-04-15T07:48:51.109Z,48.37
2023-04-15T07:49:54.030Z,48.35
2023-04-15T07:50:58.199Z,48.34
2023-04-15T07:52:01.448Z,48.35
2023-04-15T07:53:06.081Z,48.31
2023-04-15T07:54:09.775Z,48.29
2023-04-15T07:55:14.773Z,48.27
2023-04-15T07:56:17.493Z,48.25
2023-04-15T07:57:21.519Z,48.25
2023-04-15T07:58:24.467Z,48.27
2023-04-15T07:59:31.279Z,48.28
2023-04-15T08:00:37.226Z,48.23
2023-04-15T08:01:41.933Z,48.19
2023-04-15T08:02:46.906Z,48.22
2023-04-15T08:03:51.105Z,48.15
2023-04-15T08:04:55.635Z,48.11
2023-04-15T08:05:58.944Z,48.13
2023-04-15T08:07:03.943Z,48.07
2023-04-15T08:08:07.402Z,48.06
2023-04-15T08:09:10.756Z,47.99
2023-04-15T08:10:15.188Z,47.99
2023-04-15T08:11:18.164Z,47.94
2023-04-15T08:12:21.578Z,47.85
2023-04-15T08:13:26.504Z,47.83
2023-04-15T08:14:29.205Z,47.85
2023-04-15T08:15:34.325Z,47.81
2023-04-15T08:16:37.337Z,47.75
2023-04-15T08:17:41.311Z,47.76
2023-04-15T08:18:46.836Z,47.70
2023-04-15T08:19:49.854Z,47.65
2023-04-15T08:20:52.761Z,47.68
2023-04-15T08:21:56.471Z,47.62
2023-04-15T08:22:59.403Z,47.69
2023-04-15T08:24:03.474Z,47.68
2023-04-15T08:25:06.723Z,47.65
2023-04-15T08:26:11.132Z,47.62
2023-04-15T08:27:14.241Z,47.59
2023-04-15T08:28:18.549Z,47.56
2023-04-15T08:29:23.316Z,47.54
2023-04-15T08:30:27.487Z,47.44
2023-04-15T08:32:46.926Z,47.33
2023-04-15T08:33:51.606Z,47.34
2023-04-15T08:34:54.348Z,47.32
2023-04-15T08:35:57.357Z,47.27
2023-04-15T08:37:01.662Z,47.23
2023-04-15T08:38:05.276Z,47.08
2023-04-15T08:39:08.063Z,47.12
2023-04-15T08:40:13.456Z,47.05
2023-04-15T08:42:37.315Z,46.98
2023-04-15T08:43:44.532Z,47.00
2023-04-15T08:44:47.761Z,46.94
2023-04-15T08:45:51.642Z,46.92
2023-04-15T08:46:55.051Z,46.94
2023-04-15T08:47:59.324Z,46.90
2023-04-15T08:49:05.538Z,46.93
2023-04-15T08:50:09.139Z,46.92
2023-04-15T08:51:15.304Z,46.88
2023-04-15T08:52:18.983Z,46.88
2023-04-15T08:53:22.769Z,46.87
2023-04-15T08:54:27.955Z,46.82
2023-04-15T08:55:34.855Z,46.82
2023-04-15T08:56:38.373Z,46.70
2023-04-15T08:57:40.961Z,46.63
2023-04-15T08:58:44.620Z,46.59
2023-04-15T08:59:47.694Z,46.58
2023-04-15T09:00:52.909Z,46.47
2023-04-15T09:01:59.035Z,45.25
2023-04-15T09:03:02.106Z,45.66
2023-04-15T09:04:07.428Z,45.87
2023-04-15T09:05:10.620Z,46.04
2023-04-15T09:06:16.803Z,46.01
2023-04-15T09:07:20.988Z,45.95
2023-04-15T09:08:23.850Z,46.38
2023-04-15T09:09:29.101Z,46.38
2023-04-15T09:10:34.143Z,46.03
2023-04-15T09:11:36.851Z,46.06
2023-04-15T09:12:40.261Z,46.11
2023-04-15T09:13:45.660Z,45.96
2023-04-15T09:14:48.907Z,45.94
2023-04-15T09:15:52.481Z,46.07
2023-04-15T09:17:01.846Z,46.08
2023-04-15T09:18:05.940Z,46.09
2023-04-15T09:19:23.744Z,46.09
2023-04-15T09:20:28.347Z,46.15
2023-04-15T09:21:31.912Z,46.13
2023-04-15T09:22:35.203Z,46.15
2023-04-15T09:23:40.495Z,46.11
2023-04-15T09:24:45.384Z,46.14
2023-04-15T09:25:49.876Z,46.13
2023-04-15T09:26:54.024Z,46.13
2023-04-15T09:28:01.084Z,46.12
2023-04-15T09:30:20.734Z,46.04
2023-04-15T09:31:28.564Z,46.08
2023-04-15T09:32:31.557Z,46.08
2023-04-15T09:33:37.785Z,46.04
2023-04-15T09:34:42.572Z,46.08
2023-04-15T09:35:57.725Z,46.09
2023-04-15T09:37:01.529Z,46.11
2023-04-15T09:38:09.115Z,46.09
2023-04-15T09:39:11.956Z,46.06
2023-04-15T09:40:16.854Z,46.02
2023-04-15T09:41:19.913Z,46.04
2023-04-15T09:42:26.265Z,46.03
2023-04-15T09:43:37.835Z,46.04
2023-04-15T09:44:40.611Z,46.01
2023-04-15T09:45:50.844Z,45.98
2023-04-15T09:46:54.011Z,45.97
2023-04-15T09:48:01.066Z,45.97
2023-04-15T09:49:10.958Z,45.96
2023-04-15T09:50:16.057Z,45.96
2023-04-15T09:51:20.356Z,45.97
2023-04-15T09:52:24.061Z,45.98
2023-04-15T09:53:27.553Z,46.01
2023-04-15T09:54:36.884Z,45.92
2023-04-15T09:55:40.859Z,45.92
2023-04-15T09:56:46.200Z,45.95
2023-04-15T09:57:50.392Z,46.03
2023-04-15T09:58:56.652Z,46.08
2023-04-15T09:59:59.519Z,46.06
2023-04-15T10:01:07.128Z,46.09
2023-04-15T10:02:11.948Z,46.13
2023-04-15T10:03:23.800Z,46.09
2023-04-15T10:04:29.195Z,46.07
2023-04-15T10:05:32.245Z,46.17
2023-04-15T10:06:35.433Z,46.26
2023-04-15T10:07:41.595Z,46.40
2023-04-15T10:08:46.524Z,46.39
2023-04-15T10:09:50.514Z,46.38
2023-04-15T10:10:54.355Z,46.38
2023-04-15T10:11:58.277Z,46.46
2023-04-15T10:13:02.621Z,46.50
2023-04-15T10:15:20.299Z,46.43
2023-04-15T10:16:26.024Z,46.43
2023-04-15T10:17:31.792Z,46.49
2023-04-15T10:18:39.331Z,46.58
2023-04-15T10:19:44.302Z,46.61
2023-04-15T10:20:49.270Z,46.67
2023-04-15T10:21:52.618Z,46.70
2023-04-15T10:22:56.109Z,46.75
2023-04-15T10:24:02.017Z,46.80
2023-04-15T10:25:07.130Z,46.85
2023-04-15T10:26:12.303Z,46.85
2023-04-15T10:27:15.665Z,47.04
2023-04-15T10:28:23.497Z,47.09
2023-04-15T10:30:48.769Z,47.27
2023-04-15T10:31:56.121Z,47.25
2023-04-15T10:32:59.134Z,47.34
2023-04-15T10:35:17.501Z,47.51
2023-04-15T10:36:21.124Z,47.55
2023-04-15T10:38:52.777Z,47.72
2023-04-15T10:39:59.412Z,47.74
2023-04-15T10:41:20.177Z,47.68
2023-04-15T10:42:23.192Z,47.66
2023-04-15T10:43:30.672Z,47.36
2023-04-15T10:44:34.060Z,47.21
2023-04-15T10:45:38.652Z,47.07
2023-04-15T10:46:42.869Z,47.07
2023-04-15T10:47:45.830Z,47.17
2023-04-15T10:50:06.180Z,47.35
2023-04-15T10:51:08.994Z,47.40
2023-04-15T10:52:13.218Z,47.46
2023-04-15T10:53:21.756Z,47.57
2023-04-15T10:54:27.728Z,47.64
2023-04-15T10:55:34.357Z,47.65
2023-04-15T10:56:47.939Z,47.73
2023-04-15T10:57:54.726Z,47.82
2023-04-15T10:59:01.661Z,47.85
2023-04-15T11:00:14.999Z,47.92
2023-04-15T11:01:21.819Z,47.96
2023-04-15T11:02:42.841Z,48.00
2023-04-15T11:03:46.108Z,48.05
2023-04-15T11:04:57.814Z,48.10
2023-04-15T11:06:01.774Z,48.12
2023-04-15T11:07:07.116Z,48.14
2023-04-15T11:08:10.436Z,48.20
2023-04-15T11:09:33.257Z,48.22
2023-04-15T11:10:40.152Z,48.22
2023-04-15T11:12:06.759Z,48.23
2023-04-15T11:13:20.901Z,48.21
2023-04-15T11:14:27.466Z,48.28
2023-04-15T11:15:33.282Z,48.34
2023-04-15T11:16:44.656Z,48.45
2023-04-15T11:17:47.451Z,48.51
2023-04-15T11:20:14.440Z,48.64
2023-04-15T11:21:17.042Z,48.58
2023-04-15T11:22:20.240Z,48.67
2023-04-15T11:23:41.253Z,48.67
2023-04-15T11:24:51.746Z,48.75
2023-04-15T11:27:21.528Z,48.85
2023-04-15T11:28:30.790Z,48.81
2023-04-15T11:29:35.899Z,48.85
2023-04-15T11:30:39.765Z,48.93
2023-04-15T11:31:44.390Z,48.93
2023-04-15T11:35:18.652Z,48.90
2023-04-15T11:36:29.562Z,48.91
2023-04-15T11:37:33.784Z,48.97
2023-04-15T11:38:37.900Z,48.96
2023-04-15T11:39:42.207Z,49.00
2023-04-15T11:40:47.233Z,49.01
2023-04-15T11:41:50.210Z,49.00
2023-04-15T11:43:21.798Z,49.08
2023-04-15T11:44:24.601Z,49.10
2023-04-15T11:45:28.330Z,49.19
2023-04-15T11:46:34.062Z,49.21
2023-04-15T11:47:38.663Z,49.18
2023-04-15T11:48:44.777Z,49.11
2023-04-15T11:52:14.989Z,48.88
2023-04-15T11:53:18.362Z,48.90
2023-04-15T11:54:22.959Z,48.90
2023-04-15T11:55:26.320Z,48.69
2023-04-15T11:56:29.304Z,48.43
2023-04-15T11:57:32.665Z,48.43
2023-04-15T11:59:51.474Z,48.16
2023-04-15T12:02:13.727Z,47.93
2023-04-15T12:03:24.742Z,47.89
2023-04-15T12:04:28.825Z,47.81
2023-04-15T12:05:32.933Z,47.68
2023-04-15T12:06:38.120Z,47.44
2023-04-15T12:09:13.759Z,46.98
2023-04-15T12:10:17.972Z,46.98
2023-04-15T12:11:31.580Z,46.84
2023-04-15T12:12:36.676Z,46.92
2023-04-15T12:13:48.992Z,46.87
2023-04-15T12:14:53.514Z,46.81
2023-04-15T12:15:56.880Z,46.78
2023-04-15T12:17:01.623Z,46.75
2023-04-15T12:18:06.017Z,46.68
2023-04-15T12:20:27.078Z,46.55
2023-04-15T12:21:35.810Z,46.61
2023-04-15T12:22:39.026Z,46.58
2023-04-15T12:23:50.141Z,46.55
2023-04-15T12:24:57.773Z,46.58
2023-04-15T12:26:09.557Z,46.55
2023-04-15T12:27:14.968Z,46.55
2023-04-15T12:28:19.391Z,46.52
2023-04-15T12:29:28.126Z,46.53
2023-04-15T12:30:31.712Z,46.57
2023-04-15T12:31:36.263Z,46.53
2023-04-15T12:32:40.976Z,46.55
2023-04-15T12:33:48.849Z,46.59
2023-04-15T12:34:52.580Z,46.62
2023-04-15T12:35:56.281Z,46.63
2023-04-15T12:37:00.456Z,46.62
2023-04-15T12:38:02.977Z,46.60
2023-04-15T12:39:05.709Z,46.65
2023-04-15T12:40:11.111Z,46.65
2023-04-15T12:41:14.889Z,46.70
2023-04-15T12:42:18.814Z,46.72
2023-04-15T12:43:23.744Z,46.75
2023-04-15T12:44:27.851Z,46.76
2023-04-15T12:45:31.147Z,46.75
2023-04-15T12:46:34.924Z,46.81
2023-04-15T12:47:38.846Z,46.87
2023-04-15T12:48:43.373Z,46.86
2023-04-15T12:49:47.527Z,46.92
2023-04-15T12:50:52.015Z,46.93
2023-04-15T12:51:59.540Z,46.97
2023-04-15T12:53:05.125Z,46.99
2023-04-15T12:54:07.968Z,47.04
2023-04-15T12:55:11.683Z,46.98
2023-04-15T12:56:14.772Z,46.99
2023-04-15T12:57:19.219Z,46.94
2023-04-15T12:58:22.317Z,46.94
2023-04-15T12:59:26.383Z,46.92
2023-04-15T13:00:29.410Z,46.98
2023-04-15T13:01:34.403Z,46.99
2023-04-15T13:02:37.976Z,46.97
2023-04-15T13:03:42.034Z,46.99
2023-04-15T13:04:45.151Z,47.04
2023-04-15T13:05:47.971Z,47.07
2023-04-15T13:06:50.977Z,47.13
2023-04-15T13:07:54.800Z,47.16
2023-04-15T13:08:59.053Z,47.17
2023-04-15T13:10:02.623Z,47.21
2023-04-15T13:12:22.060Z,47.29
2023-04-15T13:13:28.801Z,47.31
2023-04-15T13:14:31.439Z,47.38
2023-04-15T13:15:34.198Z,47.80
2023-04-15T13:16:37.824Z,47.80
2023-04-15T13:17:41.573Z,47.67
2023-04-15T13:20:00.049Z,48.01
2023-04-15T13:21:05.237Z,48.07
2023-04-15T13:22:08.363Z,48.13
2023-04-15T13:23:11.582Z,48.23
2023-04-15T13:24:15.060Z,48.29
2023-04-15T13:25:17.876Z,48.40
2023-04-15T13:26:20.790Z,48.52
2023-04-15T13:27:23.821Z,48.60
2023-04-15T13:28:28.475Z,48.66
2023-04-15T13:30:35.339Z,48.65
2023-04-15T13:31:38.965Z,48.68
2023-04-15T13:32:42.977Z,48.70
2023-04-15T13:33:46.053Z,48.69
2023-04-15T13:34:50.541Z,48.71
2023-04-15T13:35:53.524Z,48.71
2023-04-15T13:38:12.426Z,48.78
2023-04-15T13:39:16.412Z,48.79
2023-04-15T13:40:20.924Z,48.75
2023-04-15T13:41:24.835Z,48.77
2023-04-15T13:42:28.856Z,48.76
2023-04-15T13:43:33.844Z,48.76
2023-04-15T13:44:36.570Z,48.79
2023-04-15T13:45:40.421Z,48.79
2023-04-15T13:46:44.406Z,48.79
2023-04-15T13:47:47.617Z,48.76
2023-04-15T13:48:51.179Z,48.80
2023-04-15T13:49:56.368Z,48.79
2023-04-15T13:51:00.204Z,48.81
2023-04-15T13:52:04.311Z,48.77
2023-04-15T13:53:07.166Z,48.77
2023-04-15T13:54:13.142Z,48.79
2023-04-15T13:55:19.363Z,48.77
2023-04-15T13:56:23.446Z,48.76
2023-04-15T13:57:26.973Z,48.75
2023-04-15T13:58:31.291Z,48.79
2023-04-15T13:59:36.780Z,48.76
2023-04-15T14:00:40.794Z,48.78
2023-04-15T14:01:44.886Z,48.79
2023-04-15T14:02:49.314Z,48.75
2023-04-15T14:03:52.373Z,48.73
2023-04-15T14:04:55.975Z,48.70
2023-04-15T14:05:58.834Z,48.71
2023-04-15T14:07:05.348Z,48.65
2023-04-15T14:09:26.447Z,48.58
2023-04-15T14:10:33.223Z,48.55
2023-04-15T14:11:38.361Z,48.55
2023-04-15T14:12:41.303Z,48.53
2023-04-15T14:13:44.075Z,48.54
2023-04-15T14:14:47.026Z,48.52
2023-04-15T14:15:50.006Z,48.49
2023-04-15T14:16:52.944Z,48.48
2023-04-15T14:17:55.940Z,48.47
2023-04-15T14:18:59.137Z,48.47
2023-04-15T14:20:01.847Z,48.46
2023-04-15T14:21:05.910Z,48.52
2023-04-15T14:22:10.407Z,48.57
2023-04-15T14:23:14.404Z,48.66
2023-04-15T14:24:18.340Z,48.70
2023-04-15T14:25:32.783Z,48.74
2023-04-15T14:26:26.533Z,48.77
2023-04-15T14:27:30.250Z,48.81
2023-04-15T14:28:33.791Z,48.79
2023-04-15T14:29:38.970Z,48.78